YR221 LRCV-LRCV
Flight info
| Callsign | YR221 |
|---|---|
| Flight time | 0h 7m |
| Altitude | 4000 |
| Route | PEMOK |
| Aircraft | C172/L-SFG/C |
Departure
| Time | 2026-04-26 12:58 |
|---|---|
| Airport | Craiova International Airport (LRCV) |
Arrival
| Time | 2026-04-26 13:06 |
|---|---|
| Airport | Craiova International Airport (LRCV) |
| Time | Latitude | Longitude | Altitude | Speed | Heading |
|---|---|---|---|---|---|
| 2026-04-26 12:44 | 44.31342 | 23.87825 | 626 ft | 0 kts | 108° |
| 2026-04-26 12:52 | 44.31341 | 23.87827 | 626 ft | 2 kts | 100° |
| 2026-04-26 12:52 | 44.31394 | 23.87840 | 626 ft | 13 kts | 4° |
| 2026-04-26 12:53 | 44.31500 | 23.87840 | 626 ft | 19 kts | 358° |
| 2026-04-26 12:53 | 44.31655 | 23.87833 | 632 ft | 26 kts | 349° |
| 2026-04-26 12:53 | 44.31785 | 23.87890 | 628 ft | 19 kts | 97° |
| 2026-04-26 12:53 | 44.31796 | 23.87954 | 627 ft | 5 kts | 271° |
| 2026-04-26 12:54 | 44.31761 | 23.87838 | 628 ft | 22 kts | 213° |
| 2026-04-26 12:54 | 44.31589 | 23.87879 | 629 ft | 23 kts | 114° |
| 2026-04-26 12:54 | 44.31595 | 23.88125 | 629 ft | 31 kts | 81° |
| 2026-04-26 12:54 | 44.31600 | 23.88438 | 624 ft | 32 kts | 82° |
| 2026-04-26 12:55 | 44.31602 | 23.88741 | 623 ft | 32 kts | 82° |
| 2026-04-26 12:55 | 44.31603 | 23.89043 | 621 ft | 30 kts | 89° |
| 2026-04-26 12:55 | 44.31605 | 23.89345 | 620 ft | 31 kts | 88° |
| 2026-04-26 12:55 | 44.31611 | 23.89630 | 619 ft | 26 kts | 89° |
| 2026-04-26 12:56 | 44.31660 | 23.89771 | 618 ft | 15 kts | 13° |
| 2026-04-26 12:56 | 44.31749 | 23.89785 | 619 ft | 10 kts | 10° |
| 2026-04-26 12:56 | 44.31804 | 23.89784 | 620 ft | 6 kts | 346° |
| 2026-04-26 12:56 | 44.31824 | 23.89762 | 620 ft | 1 kts | 299° |
| 2026-04-26 12:57 | 44.31829 | 23.89697 | 621 ft | 22 kts | 271° |
| 2026-04-26 12:57 | 44.31820 | 23.89317 | 659 ft | 49 kts | 272° |
| 2026-04-26 12:57 | 44.31789 | 23.88795 | 730 ft | 62 kts | 281° |
| 2026-04-26 12:58 | 44.31784 | 23.87483 | 1117 ft | 55 kts | 277° |
| 2026-04-26 12:58 | 44.31785 | 23.87012 | 1347 ft | 53 kts | 281° |
| 2026-04-26 12:58 | 44.31819 | 23.86422 | 1424 ft | 71 kts | 284° |
| 2026-04-26 12:58 | 44.31889 | 23.85629 | 1478 ft | 75 kts | 281° |
| 2026-04-26 12:59 | 44.31952 | 23.84928 | 1442 ft | 80 kts | 282° |
| 2026-04-26 12:59 | 44.31820 | 23.84325 | 1430 ft | 68 kts | 257° |
| 2026-04-26 12:59 | 44.31532 | 23.83705 | 1351 ft | 83 kts | 253° |
| 2026-04-26 12:59 | 44.31233 | 23.83020 | 1311 ft | 81 kts | 257° |
| 2026-04-26 13:00 | 44.31250 | 23.82412 | 1373 ft | 65 kts | 313° |
| 2026-04-26 13:00 | 44.31797 | 23.82428 | 1317 ft | 92 kts | 358° |
| 2026-04-26 13:00 | 44.32382 | 23.82479 | 1280 ft | 77 kts | 320° |
| 2026-04-26 13:00 | 44.32424 | 23.81752 | 1084 ft | 91 kts | 245° |
| 2026-04-26 13:01 | 44.31815 | 23.81353 | 1173 ft | 102 kts | 211° |
| 2026-04-26 13:01 | 44.31098 | 23.81043 | 1162 ft | 112 kts | 207° |
| 2026-04-26 13:01 | 44.30404 | 23.80679 | 1203 ft | 89 kts | 249° |
| 2026-04-26 13:01 | 44.30552 | 23.80021 | 1198 ft | 79 kts | 303° |
| 2026-04-26 13:02 | 44.30925 | 23.79400 | 1128 ft | 87 kts | 309° |
| 2026-04-26 13:02 | 44.31338 | 23.78767 | 1093 ft | 90 kts | 312° |
| 2026-04-26 13:02 | 44.31832 | 23.79140 | 1164 ft | 128 kts | 82° |
| 2026-04-26 13:02 | 44.31696 | 23.80389 | 1168 ft | 134 kts | 96° |
| 2026-04-26 13:03 | 44.31493 | 23.81717 | 1184 ft | 142 kts | 98° |
| 2026-04-26 13:03 | 44.31257 | 23.83043 | 1276 ft | 136 kts | 117° |
| 2026-04-26 13:03 | 44.30573 | 23.83880 | 1278 ft | 128 kts | 175° |
| 2026-04-26 13:03 | 44.29743 | 23.83921 | 1282 ft | 119 kts | 196° |
| 2026-04-26 13:04 | 44.28934 | 23.83798 | 1294 ft | 119 kts | 202° |
| 2026-04-26 13:04 | 44.28079 | 23.83627 | 1192 ft | 125 kts | 202° |
| 2026-04-26 13:04 | 44.27269 | 23.83443 | 1044 ft | 113 kts | 204° |
| 2026-04-26 13:04 | 44.26643 | 23.83137 | 1006 ft | 75 kts | 256° |
| 2026-04-26 13:05 | 44.26595 | 23.82404 | 870 ft | 80 kts | 290° |
| 2026-04-26 13:05 | 44.26931 | 23.81805 | 775 ft | 81 kts | 311° |
| 2026-04-26 13:05 | 44.27351 | 23.81223 | 599 ft | 89 kts | 311° |
| 2026-04-26 13:05 | 44.27768 | 23.80590 | 507 ft | 80 kts | 309° |
| 2026-04-26 13:06 | 44.28033 | 23.80137 | 417 ft | 47 kts | 306° |
| 2026-04-26 13:06 | 44.28236 | 23.79789 | 307 ft | 45 kts | 308° |
| 2026-04-26 13:06 | 44.28415 | 23.79475 | 242 ft | 37 kts | 313° |
| 2026-04-26 13:06 | 44.28549 | 23.79271 | 238 ft | 14 kts | 311° |
| 2026-04-26 13:07 | 44.28593 | 23.79201 | 237 ft | 9 kts | 311° |
| 2026-04-26 13:07 | 44.28626 | 23.79147 | 236 ft | 16 kts | 310° |
| 2026-04-26 13:07 | 44.28654 | 23.79091 | 236 ft | 4 kts | 242° |
| 2026-04-26 13:07 | 44.28631 | 23.79034 | 236 ft | 10 kts | 242° |
| 2026-04-26 13:08 | 44.28577 | 23.79031 | 236 ft | 12 kts | 124° |
| 2026-04-26 13:08 | 44.28524 | 23.79159 | 236 ft | 18 kts | 124° |
| 2026-04-26 13:08 | 44.28419 | 23.79254 | 236 ft | 16 kts | 176° |
| 2026-04-26 13:08 | 44.28360 | 23.79301 | 237 ft | 0 kts | 197° |